Time;durP1;ratioP1;P1;durP2;ratioP2;P2;SDS_P1;SDS_P2;PMS_P1;PMS_P2;Temp;Humidity;BMP_temperature;BMP_pressure;BME280_temperature;BME280_humidity;BME280_pressure;Samples;Min_cycle;Max_cycle;Signal;HPM_P1;HPM_P2
2022/10/01 00:00:55;;;;;;;14.95;11.52;;;10.20;99.90;;;;;;5054599;28;20048;-34
2022/10/01 00:03:25;;;;;;;13.18;11.77;;;10.20;99.90;;;;;;5054378;28;20501;-33
2022/10/01 00:06:04;;;;;;;15.82;12.40;;;10.20;99.90;;;;;;5054707;28;20055;-33
2022/10/01 00:08:31;;;;;;;14.75;12.68;;;10.20;99.90;;;;;;5055190;28;20410;-34
2022/10/01 00:10:59;;;;;;;15.65;13.18;;;10.10;99.90;;;;;;5054172;28;20049;-33
2022/10/01 00:13:26;;;;;;;15.15;13.57;;;10.10;99.90;;;;;;5054123;28;20052;-34
2022/10/01 00:15:52;;;;;;;21.25;14.25;;;10.20;99.90;;;;;;5053306;28;20395;-33
2022/10/01 00:18:17;;;;;;;17.60;15.45;;;10.20;99.90;;;;;;5054917;28;20048;-34
2022/10/01 00:20:43;;;;;;;16.25;14.27;;;10.10;99.90;;;;;;5054300;28;20549;-33
2022/10/01 00:23:10;;;;;;;18.45;15.25;;;10.20;99.90;;;;;;5054269;28;20041;-34
2022/10/01 00:25:37;;;;;;;19.30;15.35;;;10.10;99.90;;;;;;5054236;28;20132;-33
2022/10/01 00:28:03;;;;;;;19.20;15.23;;;10.20;99.90;;;;;;5053028;28;20041;-34
2022/10/01 00:30:28;;;;;;;21.27;16.23;;;10.20;99.90;;;;;;5054447;28;20056;-33
2022/10/01 00:32:54;;;;;;;20.92;15.70;;;10.10;99.90;;;;;;5052892;28;20044;-33
2022/10/01 00:35:21;;;;;;;20.63;16.85;;;10.20;99.90;;;;;;5054002;28;20049;-34
2022/10/01 00:37:51;;;;;;;21.48;16.50;;;10.20;99.90;;;;;;5054106;28;20562;-33
2022/10/01 00:40:21;;;;;;;17.65;15.10;;;10.10;99.90;;;;;;5052709;28;20049;-32
2022/10/01 00:42:47;;;;;;;21.63;16.77;;;10.20;99.90;;;;;;5053893;28;20045;-33
2022/10/01 00:45:15;;;;;;;18.17;15.63;;;10.10;99.90;;;;;;5053966;28;20114;-32
2022/10/01 00:47:43;;;;;;;21.63;16.40;;;10.10;99.90;;;;;;5052919;28;20089;-34
2022/10/01 00:50:21;;;;;;;25.48;18.83;;;10.10;99.90;;;;;;5053829;28;20045;-34
2022/10/01 00:52:51;;;;;;;26.80;20.38;;;10.10;99.90;;;;;;5052971;28;20048;-33
2022/10/01 00:55:50;;;;;;;21.10;17.75;;;10.10;99.90;;;;;;5054395;28;20049;-33
2022/10/01 00:58:19;;;;;;;17.40;15.10;;;10.20;99.90;;;;;;5046058;28;20063;-33
2022/10/01 01:00:45;;;;;;;18.65;15.75;;;10.20;99.90;;;;;;5053495;28;20048;-33
2022/10/01 01:03:11;;;;;;;22.83;18.65;;;10.20;99.90;;;;;;5053742;28;20049;-33
2022/10/01 01:05:38;;;;;;;19.85;16.98;;;10.10;99.90;;;;;;5053672;28;20045;-33
2022/10/01 01:08:05;;;;;;;24.60;18.23;;;10.10;99.90;;;;;;5052516;28;20098;-32
2022/10/01 01:10:43;;;;;;;19.25;17.15;;;10.10;99.90;;;;;;5053618;28;20098;-32
2022/10/01 01:13:23;;;;;;;22.83;14.93;;;10.10;99.90;;;;;;5036349;28;20060;-32
2022/10/01 01:16:07;;;;;;;22.73;17.70;;;10.10;99.90;;;;;;5053534;28;20053;-32
2022/10/01 01:18:55;;;;;;;20.90;16.15;;;10.00;99.90;;;;;;5053871;28;20071;-32
2022/10/01 01:21:29;;;;;;;24.40;18.50;;;10.00;99.90;;;;;;5054049;28;20045;-32
2022/10/01 01:23:57;;;;;;;;;;;10.00;99.90;;;;;;5057247;28;20520;-31
2022/10/01 01:27:01;;;;;;;18.67;14.30;;;10.00;99.90;;;;;;5056695;28;20358;-32
2022/10/01 01:29:31;;;;;;;;;;;10.10;99.90;;;;;;5057738;28;20475;-31
2022/10/01 01:32:06;;;;;;;21.55;16.52;;;10.10;99.90;;;;;;5057614;28;19924;-32
2022/10/01 01:34:34;;;;;;;24.92;18.00;;;10.00;99.90;;;;;;5058094;28;20044;-32
2022/10/01 01:37:10;;;;;;;21.17;17.38;;;10.10;99.90;;;;;;5058591;28;20049;-32
2022/10/01 01:39:41;;;;;;;21.48;17.15;;;10.00;99.90;;;;;;5057719;28;20391;-33
2022/10/01 01:42:14;;;;;;;25.48;19.13;;;10.00;99.90;;;;;;5056688;28;20045;-32
2022/10/01 01:44:44;;;;;;;23.08;17.70;;;10.00;99.90;;;;;;5057329;28;20049;-34
2022/10/01 01:47:11;;;;;;;30.02;19.77;;;10.00;99.90;;;;;;5057230;28;20051;-33
2022/10/01 01:49:38;;;;;;;21.20;16.17;;;10.00;99.90;;;;;;5057769;28;20378;-32
2022/10/01 01:52:13;;;;;;;24.20;17.20;;;10.00;99.90;;;;;;5057782;28;20116;-36
2022/10/01 01:54:39;;;;;;;21.38;16.50;;;10.10;99.90;;;;;;5057084;28;20128;-33
2022/10/01 01:57:07;;;;;;;18.25;15.25;;;10.10;99.90;;;;;;5057353;28;20100;-34
2022/10/01 01:59:34;;;;;;;21.17;16.48;;;10.00;99.90;;;;;;5057350;28;20053;-32
2022/10/01 02:02:01;;;;;;;19.70;14.50;;;10.00;99.90;;;;;;5057183;28;20073;-33
2022/10/01 02:04:47;;;;;;;25.15;17.88;;;10.10;99.90;;;;;;5056929;28;20107;-33
2022/10/01 02:07:15;;;;;;;16.08;14.07;;;10.00;99.90;;;;;;5057752;28;20111;-34
2022/10/01 02:09:41;;;;;;;21.38;16.45;;;10.20;99.90;;;;;;5056863;28;20485;-37
2022/10/01 02:12:43;;;;;;;23.00;13.13;;;10.10;99.90;;;;;;5057070;28;20077;-32
2022/10/01 02:15:24;;;;;;;18.20;13.60;;;10.10;99.90;;;;;;5056760;28;20140;-32
2022/10/01 02:18:17;;;;;;;19.70;14.40;;;10.10;99.90;;;;;;5056722;28;20052;-32
2022/10/01 02:21:02;;;;;;;20.48;15.85;;;10.10;99.90;;;;;;5056937;28;20194;-32
2022/10/01 02:23:34;;;;;;;17.90;13.35;;;10.10;99.90;;;;;;5056579;28;20131;-32
2022/10/01 02:26:13;;;;;;;23.92;16.05;;;10.00;99.90;;;;;;5057704;28;20098;-32
2022/10/01 02:28:41;;;;;;;24.38;15.77;;;10.20;99.90;;;;;;5056830;28;20067;-34
2022/10/01 02:31:09;;;;;;;20.80;15.13;;;10.10;99.90;;;;;;5056425;28;20037;-32
2022/10/01 02:33:37;;;;;;;19.35;14.77;;;10.10;99.90;;;;;;5056105;28;20132;-32
2022/10/01 02:36:05;;;;;;;14.82;11.73;;;10.00;99.90;;;;;;5056735;28;20064;-32
2022/10/01 02:38:33;;;;;;;19.30;12.70;;;10.20;99.90;;;;;;5055972;28;20521;-32
2022/10/01 02:41:03;;;;;;;18.25;13.57;;;9.90;99.90;;;;;;5054955;28;20045;-32
2022/10/01 02:43:50;;;;;;;15.27;12.13;;;10.10;99.90;;;;;;5054982;28;20059;-31
2022/10/01 02:46:22;;;;;;;12.30;10.00;;;10.50;99.90;;;;;;5056744;28;20048;-32
2022/10/01 02:48:50;;;;;;;10.82;9.73;;;10.10;99.90;;;;;;5056742;28;20056;-33
2022/10/01 02:51:27;;;;;;;13.73;10.00;;;10.60;99.90;;;;;;5054764;28;20111;-32
2022/10/01 02:54:06;;;;;;;13.50;10.70;;;10.60;99.90;;;;;;5055964;28;20049;-32
2022/10/01 02:59:20;;;;;;;14.30;11.43;;;9.90;99.90;;;;;;5056810;28;20170;-32
2022/10/01 03:01:46;;;;;;;13.65;10.63;;;10.60;99.90;;;;;;5054410;28;20123;-32
2022/10/01 03:04:12;;;;;;;12.48;9.80;;;9.90;99.90;;;;;;5056147;28;20081;-32
2022/10/01 03:06:37;;;;;;;11.32;10.07;;;10.10;99.90;;;;;;5055849;28;20064;-31
2022/10/01 03:09:03;;;;;;;11.95;9.48;;;10.30;99.90;;;;;;5055746;28;20049;-31
2022/10/01 03:11:29;;;;;;;10.05;8.45;;;9.90;99.90;;;;;;5055388;28;20041;-34
2022/10/01 03:13:55;;;;;;;12.82;11.23;;;10.10;99.90;;;;;;5055636;28;20044;-31
2022/10/01 03:16:21;;;;;;;9.23;8.10;;;10.30;99.90;;;;;;5055219;28;20439;-31
2022/10/01 03:18:47;;;;;;;9.75;8.75;;;10.10;99.90;;;;;;5054915;28;20048;-32
2022/10/01 03:21:12;;;;;;;10.77;8.32;;;9.90;99.90;;;;;;5055475;28;20041;-32
2022/10/01 03:23:38;;;;;;;11.98;9.48;;;10.60;99.90;;;;;;5054207;28;20049;-30
2022/10/01 03:26:04;;;;;;;8.27;6.45;;;10.80;99.90;;;;;;5037897;28;20129;-31
2022/10/01 03:28:29;;;;;;;9.80;8.68;;;10.10;99.90;;;;;;5055403;28;20087;-31
2022/10/01 03:31:09;;;;;;;8.25;7.00;;;10.80;99.90;;;;;;5054406;28;20140;-31
2022/10/01 03:33:35;;;;;;;10.02;7.18;;;10.90;99.90;;;;;;5055283;28;20056;-31
2022/10/01 03:36:02;;;;;;;7.53;6.60;;;10.30;99.90;;;;;;5054920;28;20056;-31
2022/10/01 03:38:28;;;;;;;6.90;5.78;;;10.60;99.90;;;;;;5055165;28;20045;-31
2022/10/01 03:40:54;;;;;;;4.72;4.03;;;10.90;99.90;;;;;;5054112;28;20045;-33
2022/10/01 03:43:20;;;;;;;6.65;4.80;;;10.10;99.90;;;;;;5053954;28;20053;-31
2022/10/01 03:45:46;;;;;;;6.78;4.53;;;10.60;99.90;;;;;;5053346;28;20483;-31
2022/10/01 03:48:12;;;;;;;3.58;3.28;;;11.00;99.90;;;;;;5054992;28;20055;-32
2022/10/01 03:50:37;;;;;;;4.47;3.95;;;10.20;99.90;;;;;;5053699;28;20434;-32
2022/10/01 03:53:04;;;;;;;4.97;4.18;;;10.80;99.90;;;;;;5055394;28;20049;-31
2022/10/01 03:55:30;;;;;;;6.20;3.70;;;10.70;99.90;;;;;;5054844;28;20045;-32
2022/10/01 03:57:57;;;;;;;4.28;3.88;;;10.20;99.90;;;;;;5037282;28;20132;-30
2022/10/01 04:00:24;;;;;;;4.97;3.67;;;10.40;99.90;;;;;;5054737;28;20049;-29
2022/10/01 04:02:49;;;;;;;4.07;3.67;;;11.00;99.90;;;;;;5055787;28;20052;-31
2022/10/01 04:05:15;;;;;;;3.90;3.58;;;10.20;99.90;;;;;;5054348;28;20383;-30
2022/10/01 04:07:41;;;;;;;4.90;3.97;;;10.30;99.90;;;;;;5054627;28;20049;-32
2022/10/01 04:10:07;;;;;;;3.85;3.35;;;10.90;99.90;;;;;;5053865;28;20040;-30
2022/10/01 04:12:33;;;;;;;4.30;3.90;;;11.00;99.90;;;;;;5054610;28;20048;-34
2022/10/01 04:14:59;;;;;;;3.72;3.20;;;10.90;99.90;;;;;;5054761;28;20040;-30
2022/10/01 04:17:25;;;;;;;3.60;3.08;;;10.30;99.90;;;;;;5054945;28;20049;-30
2022/10/01 04:19:51;;;;;;;3.95;3.65;;;10.90;99.90;;;;;;5054394;28;20443;-31
2022/10/01 04:22:17;;;;;;;4.60;4.10;;;10.40;99.90;;;;;;5053919;28;20138;-32
2022/10/01 04:24:42;;;;;;;3.17;2.92;;;10.60;99.90;;;;;;5054297;28;20044;-31
2022/10/01 04:27:08;;;;;;;3.33;3.03;;;11.10;99.90;;;;;;5053256;28;20102;-32
2022/10/01 04:29:34;;;;;;;5.28;3.80;;;10.40;99.90;;;;;;5053044;28;20049;-31
2022/10/01 04:32:02;;;;;;;4.85;3.03;;;10.40;99.90;;;;;;5053543;28;20063;-31
2022/10/01 04:37:13;;;;;;;6.25;4.85;;;11.00;99.90;;;;;;5054292;28;20067;-31
2022/10/01 04:39:38;;;;;;;4.32;3.92;;;11.20;99.90;;;;;;5054572;28;20127;-32
2022/10/01 04:42:04;;;;;;;4.60;4.20;;;11.30;99.90;;;;;;5052748;28;20076;-31
2022/10/01 04:44:30;;;;;;;5.43;4.93;;;11.00;99.90;;;;;;5054033;28;20048;-31
2022/10/01 04:46:55;;;;;;;5.30;4.05;;;10.50;99.90;;;;;;5052952;28;20052;-31
2022/10/01 04:49:21;;;;;;;5.25;4.60;;;11.10;99.90;;;;;;5053008;28;20081;-31
2022/10/01 04:51:47;;;;;;;6.57;5.03;;;10.90;99.90;;;;;;5052684;28;20434;-32
2022/10/01 04:54:13;;;;;;;5.35;4.60;;;11.10;99.90;;;;;;5053883;28;20049;-32
2022/10/01 04:56:38;;;;;;;6.03;5.35;;;10.70;99.90;;;;;;5054864;28;20049;-31
2022/10/01 04:59:04;;;;;;;5.65;4.28;;;11.30;99.90;;;;;;5054351;28;20132;-32
2022/10/01 05:01:31;;;;;;;6.88;5.93;;;10.80;99.90;;;;;;5053956;28;20470;-31
2022/10/01 05:03:57;;;;;;;6.50;5.85;;;10.60;99.90;;;;;;5053115;28;20049;-32
2022/10/01 05:06:23;;;;;;;6.07;5.47;;;11.00;99.90;;;;;;5053269;28;20041;-31
2022/10/01 05:08:50;;;;;;;7.13;5.53;;;10.60;99.90;;;;;;5053611;28;20048;-31
2022/10/01 05:11:17;;;;;;;7.20;5.68;;;11.30;99.90;;;;;;5053866;28;20052;-32
2022/10/01 05:13:43;;;;;;;6.72;5.32;;;11.00;99.90;;;;;;5053330;28;20495;-32
2022/10/01 05:16:09;;;;;;;7.55;6.05;;;11.30;99.90;;;;;;5054155;28;20048;-31
2022/10/01 05:18:34;;;;;;;7.32;5.75;;;11.40;99.90;;;;;;5053612;28;20518;-31
2022/10/01 05:21:04;;;;;;;7.28;6.05;;;11.00;99.90;;;;;;5052247;28;20060;-32
2022/10/01 05:23:31;;;;;;;6.68;5.78;;;11.30;99.90;;;;;;5053551;28;20133;-31
2022/10/01 05:25:57;;;;;;;13.25;7.72;;;10.90;99.90;;;;;;5053756;28;20479;-32
2022/10/01 05:28:23;;;;;;;7.40;6.18;;;10.80;99.90;;;;;;5052497;28;20056;-32
2022/10/01 05:30:49;;;;;;;9.57;7.10;;;11.20;99.90;;;;;;5053440;28;20049;-31
2022/10/01 05:33:15;;;;;;;9.02;8.07;;;11.30;99.90;;;;;;5053259;28;20052;-32
2022/10/01 05:35:41;;;;;;;8.73;7.75;;;10.80;99.90;;;;;;5052257;28;20498;-32
2022/10/01 05:38:07;;;;;;;10.00;7.85;;;10.80;99.90;;;;;;5053701;28;20513;-32
2022/10/01 05:40:33;;;;;;;9.85;8.73;;;11.30;99.90;;;;;;5019460;28;20045;-31
2022/10/01 05:42:59;;;;;;;11.95;8.90;;;11.10;99.90;;;;;;5035511;28;20037;-31
2022/10/01 05:45:29;;;;;;;12.75;10.73;;;11.40;99.90;;;;;;5053266;28;20049;-32
2022/10/01 05:47:58;;;;;;;11.93;9.30;;;11.10;99.90;;;;;;5053523;28;20071;-32
2022/10/01 05:50:24;;;;;;;10.05;8.60;;;11.20;99.90;;;;;;5053264;28;20045;-32
2022/10/01 05:52:52;;;;;;;14.50;10.80;;;11.00;99.90;;;;;;5053129;28;20067;-32
2022/10/01 05:55:18;;;;;;;10.48;9.38;;;11.50;99.90;;;;;;5053740;28;20049;-31
2022/10/01 05:57:44;;;;;;;16.15;11.07;;;11.30;99.90;;;;;;5053722;28;20053;-31
2022/10/01 06:00:12;;;;;;;11.70;10.52;;;11.10;99.90;;;;;;5053162;28;20049;-31
2022/10/01 06:02:38;;;;;;;16.20;13.10;;;11.10;99.90;;;;;;5053149;28;20049;-31
2022/10/01 06:05:04;;;;;;;15.10;12.45;;;11.40;99.90;;;;;;5053159;28;20399;-31
2022/10/01 06:07:32;;;;;;;12.30;10.00;;;11.10;99.90;;;;;;5052949;28;20081;-34
2022/10/01 06:09:58;;;;;;;15.10;12.48;;;11.20;99.90;;;;;;5056976;28;20386;-33
2022/10/01 06:12:24;;;;;;;13.32;11.75;;;11.80;99.90;;;;;;5055608;28;20037;-33
2022/10/01 06:14:50;;;;;;;15.38;11.30;;;11.20;99.90;;;;;;5056734;28;20045;-32
2022/10/01 06:17:16;;;;;;;15.45;12.40;;;11.20;99.90;;;;;;5057256;28;20044;-32
2022/10/01 06:19:41;;;;;;;14.00;11.55;;;11.30;99.90;;;;;;5056723;28;20045;-32
2022/10/01 06:22:07;;;;;;;16.08;12.63;;;11.70;99.90;;;;;;5055450;28;20041;-33
2022/10/01 06:24:33;;;;;;;19.45;14.60;;;11.80;99.90;;;;;;5057123;28;20055;-33
2022/10/01 06:26:58;;;;;;;16.60;14.45;;;11.70;99.90;;;;;;5056413;28;20371;-32
2022/10/01 06:29:24;;;;;;;20.02;15.60;;;11.60;99.90;;;;;;5055797;28;20091;-32
2022/10/01 06:31:50;;;;;;;27.85;16.85;;;11.50;99.90;;;;;;5057041;28;20049;-32
2022/10/01 06:34:16;;;;;;;19.20;13.05;;;11.30;99.90;;;;;;5055257;28;20071;-32
2022/10/01 06:36:41;;;;;;;24.10;16.15;;;11.30;99.90;;;;;;5056261;28;20053;-32
2022/10/01 06:39:07;;;;;;;29.60;15.57;;;11.20;99.90;;;;;;5055113;28;20518;-33
2022/10/01 06:41:33;;;;;;;22.58;15.02;;;11.40;99.90;;;;;;5056202;28;20044;-32
2022/10/01 06:43:59;;;;;;;24.67;15.60;;;11.50;99.90;;;;;;5056256;28;20462;-32
2022/10/01 06:46:24;;;;;;;21.77;12.93;;;12.00;99.90;;;;;;5055229;28;20554;-32
2022/10/01 06:48:50;;;;;;;22.50;13.57;;;12.30;99.90;;;;;;5054947;28;20131;-31
2022/10/01 06:52:47;;;;;;;25.15;15.90;;;11.80;99.90;;;;;;5056095;28;20120;-32
2022/10/01 06:54:01;;;;;;;18.67;12.93;;;12.40;99.90;;;;;;5056152;28;20048;-32
2022/10/01 06:56:27;;;;;;;26.45;13.82;;;12.50;99.90;;;;;;5056800;28;20117;-32
2022/10/01 06:58:53;;;;;;;21.13;12.95;;;12.50;99.90;;;;;;5054962;28;20479;-32
2022/10/01 07:01:20;;;;;;;21.90;12.90;;;12.70;99.90;;;;;;5056060;28;20045;-32
2022/10/01 07:03:46;;;;;;;25.48;12.40;;;12.70;99.90;;;;;;5055621;28;20429;-31
2022/10/01 07:06:12;;;;;;;20.45;10.70;;;12.50;99.90;;;;;;5056627;28;20037;-32
2022/10/01 07:08:37;;;;;;;16.15;9.77;;;12.70;99.90;;;;;;5056575;28;20485;-32
2022/10/01 07:11:03;;;;;;;18.77;9.35;;;12.90;99.90;;;;;;5054556;28;20064;-32
2022/10/01 07:13:30;;;;;;;25.55;11.20;;;12.40;99.90;;;;;;5055587;28;20088;-32
2022/10/01 07:15:56;;;;;;;20.50;7.82;;;13.00;99.90;;;;;;5055620;28;20424;-32
2022/10/01 07:18:22;;;;;;;20.20;8.80;;;13.00;99.90;;;;;;5055608;28;20048;-32
2022/10/01 07:20:48;;;;;;;19.65;9.20;;;12.90;99.90;;;;;;5054070;28;20041;-33
2022/10/01 07:23:15;;;;;;;14.57;8.05;;;12.30;99.90;;;;;;5055751;28;20044;-32
2022/10/01 07:25:41;;;;;;;16.25;7.63;;;12.30;99.90;;;;;;5054242;28;20059;-32
2022/10/01 07:28:14;;;;;;;20.10;6.47;;;12.30;99.90;;;;;;5055334;28;20084;-32
2022/10/01 07:30:42;;;;;;;24.30;8.00;;;12.90;99.90;;;;;;5055704;28;20106;-32
2022/10/01 07:33:07;;;;;;;22.42;6.25;;;12.80;99.90;;;;;;5054439;28;20493;-33
2022/10/01 07:35:36;;;;;;;19.35;6.93;;;12.20;99.90;;;;;;5055295;28;20045;-33
2022/10/01 07:38:06;;;;;;;16.98;5.20;;;12.80;99.90;;;;;;5055207;28;20048;-33
2022/10/01 07:40:33;;;;;;;20.05;5.45;;;12.90;99.90;;;;;;5055987;28;20048;-33
2022/10/01 07:42:59;;;;;;;19.55;6.18;;;12.90;99.90;;;;;;5055005;28;20053;-33
2022/10/01 07:45:27;;;;;;;21.20;5.85;;;12.90;99.90;;;;;;5037509;28;20608;-33
2022/10/01 07:47:55;;;;;;;24.27;5.57;;;12.70;99.90;;;;;;5054729;28;20047;-33
2022/10/01 07:50:21;;;;;;;14.52;5.88;;;13.20;99.90;;;;;;5055201;28;20119;-34
2022/10/01 07:52:55;;;;;;;25.00;4.70;;;12.80;99.90;;;;;;5055086;28;20049;-33
2022/10/01 07:55:25;;;;;;;14.77;3.63;;;13.30;99.90;;;;;;5053828;28;20132;-35
2022/10/01 07:57:58;;;;;;;19.50;4.25;;;13.40;99.90;;;;;;5054780;28;20048;-33
2022/10/01 08:00:25;;;;;;;24.42;3.78;;;12.90;99.90;;;;;;5054850;28;20084;-36
2022/10/01 08:02:54;;;;;;;24.33;3.75;;;12.90;99.90;;;;;;5055435;28;20123;-34
2022/10/01 08:05:23;;;;;;;19.33;3.53;;;13.00;99.90;;;;;;5055233;28;20044;-35
2022/10/01 08:07:49;;;;;;;11.88;2.88;;;13.10;99.90;;;;;;5054632;28;20045;-34
2022/10/01 08:10:17;;;;;;;23.13;3.53;;;13.40;99.90;;;;;;5054558;28;20048;-37
2022/10/01 08:12:44;;;;;;;14.13;2.55;;;13.50;99.90;;;;;;5054623;28;20049;-38
2022/10/01 08:15:12;;;;;;;12.63;2.40;;;13.50;99.90;;;;;;5054526;28;20110;-34
2022/10/01 08:17:38;;;;;;;10.55;2.20;;;13.10;99.90;;;;;;5054443;28;20067;-35
2022/10/01 08:20:06;;;;;;;10.32;2.30;;;13.60;99.90;;;;;;5054375;28;20487;-35
2022/10/01 08:22:32;;;;;;;12.93;2.17;;;13.50;99.90;;;;;;5054310;28;20049;-35
2022/10/01 08:24:58;;;;;;;20.15;2.42;;;13.60;99.90;;;;;;5054322;28;20131;-39
2022/10/01 08:27:25;;;;;;;11.93;2.70;;;13.50;99.90;;;;;;5036489;28;20380;-38
2022/10/01 08:29:52;;;;;;;11.88;1.95;;;13.50;99.90;;;;;;5037174;28;20048;-39
2022/10/01 08:32:18;;;;;;;14.13;2.40;;;13.60;99.90;;;;;;5054449;28;20080;-41
2022/10/01 08:34:45;;;;;;;10.07;1.60;;;13.80;99.90;;;;;;5054423;28;20095;-41
2022/10/01 08:37:11;;;;;;;14.00;2.78;;;14.00;99.90;;;;;;5054357;28;20053;-42
2022/10/01 08:39:36;;;;;;;13.90;1.88;;;14.20;99.90;;;;;;5054091;28;20071;-41
2022/10/01 08:42:09;;;;;;;13.30;2.08;;;14.20;99.90;;;;;;5054006;28;20075;-41
2022/10/01 08:44:42;;;;;;;;;;;14.00;99.90;;;;;;5054768;28;20059;-41
2022/10/01 08:47:53;;;;;;;22.95;2.70;;;14.00;99.90;;;;;;5052730;28;19924;-42
2022/10/01 08:50:34;;;;;;;9.27;2.53;;;14.00;99.90;;;;;;5012225;28;20046;-40
2022/10/01 08:53:03;;;;;;;19.85;3.22;;;14.00;99.90;;;;;;4996077;28;20140;-39
2022/10/01 08:55:35;;;;;;;8.23;1.42;;;13.70;99.90;;;;;;5038514;28;20061;-34
2022/10/01 08:58:17;;;;;;;14.27;2.28;;;14.00;99.90;;;;;;5053744;28;20127;-34
2022/10/01 09:00:45;;;;;;;20.80;3.00;;;14.00;99.90;;;;;;5054143;28;20045;-34
2022/10/01 09:03:13;;;;;;;14.02;2.47;;;14.10;99.90;;;;;;5053584;28;20041;-36
2022/10/01 09:06:02;;;;;;;12.60;2.67;;;14.30;99.90;;;;;;5036410;28;20057;-38
2022/10/01 09:08:42;;;;;;;20.45;2.75;;;14.40;99.90;;;;;;5053022;28;20136;-38
2022/10/01 09:11:44;;;;;;;17.48;3.00;;;14.60;99.90;;;;;;5053642;28;20497;-37
2022/10/01 09:14:15;;;;;;;11.52;2.50;;;14.90;99.90;;;;;;5032800;28;20136;-41
2022/10/01 09:17:01;;;;;;;9.20;1.70;;;15.20;99.90;;;;;;5053640;28;20048;-40
2022/10/01 09:19:53;;;;;;;10.93;2.45;;;15.00;99.90;;;;;;5053639;28;20115;-41
2022/10/01 09:22:36;;;;;;;9.30;2.25;;;15.10;99.90;;;;;;5054300;28;20044;-40
2022/10/01 09:25:21;;;;;;;10.68;1.33;;;15.00;99.90;;;;;;5053816;28;20430;-41
2022/10/01 09:27:48;;;;;;;12.35;1.85;;;14.50;99.90;;;;;;5053449;28;20048;-41
2022/10/01 09:30:23;;;;;;;8.63;1.17;;;14.50;99.90;;;;;;5053131;28;20487;-40
2022/10/01 09:32:57;;;;;;;12.40;1.52;;;14.30;99.90;;;;;;5053709;28;20041;-41
2022/10/01 09:35:55;;;;;;;6.00;1.10;;;14.50;99.90;;;;;;5053287;28;20049;-41
2022/10/01 09:38:42;;;;;;;10.10;1.50;;;15.00;99.90;;;;;;5052468;28;20131;-42
2022/10/01 09:41:09;;;;;;;11.18;1.48;;;15.20;99.90;;;;;;5053396;28;20391;-42
2022/10/01 09:43:41;;;;;;;8.48;1.83;;;14.90;99.90;;;;;;5053923;28;20522;-41
2022/10/01 09:46:18;;;;;;;8.98;1.55;;;14.40;99.90;;;;;;5058151;28;20044;-41
2022/10/01 09:49:03;;;;;;;8.70;1.77;;;14.00;99.90;;;;;;5056183;28;20135;-41
2022/10/01 09:51:35;;;;;;;11.25;1.40;;;13.80;99.90;;;;;;5057288;28;20536;-37
2022/10/01 09:54:18;;;;;;;9.32;1.73;;;13.50;99.90;;;;;;5057263;28;20055;-34
2022/10/01 09:56:49;;;;;;;9.55;1.25;;;13.20;99.90;;;;;;5057766;28;20041;-34
2022/10/01 09:59:41;;;;;;;8.90;1.70;;;13.10;99.90;;;;;;5057956;28;20068;-33
2022/10/01 10:02:24;;;;;;;8.27;1.23;;;13.00;99.90;;;;;;5052775;28;20092;-33
2022/10/01 10:05:06;;;;;;;10.48;1.25;;;13.00;99.90;;;;;;5057014;28;20052;-32
2022/10/01 10:07:34;;;;;;;7.32;1.30;;;13.00;99.90;;;;;;5056954;28;20053;-32
2022/10/01 10:10:23;;;;;;;13.63;2.20;;;13.00;99.90;;;;;;5056900;28;20053;-34
2022/10/01 10:13:01;;;;;;;11.38;1.95;;;12.90;99.90;;;;;;5056260;28;20083;-30
2022/10/01 10:15:30;;;;;;;8.85;1.00;;;12.30;99.90;;;;;;5056852;28;20552;-28
2022/10/01 10:18:16;;;;;;;6.35;1.00;;;11.30;99.90;;;;;;5055742;28;20491;-30
2022/10/01 10:20:50;;;;;;;6.35;1.05;;;12.00;99.90;;;;;;5057018;28;20045;-29
2022/10/01 10:23:21;;;;;;;6.43;1.13;;;11.20;99.90;;;;;;5057236;28;20055;-29
2022/10/01 10:25:59;;;;;;;6.90;1.00;;;10.90;99.90;;;;;;5056447;28;20045;-32
2022/10/01 10:28:28;;;;;;;11.18;1.85;;;11.30;99.90;;;;;;5056768;28;20478;-32
2022/10/01 10:30:56;;;;;;;8.70;1.60;;;11.20;99.90;;;;;;5056513;28;20045;-31
2022/10/01 10:33:25;;;;;;;6.22;1.15;;;12.20;99.90;;;;;;5038693;28;20518;-30
2022/10/01 10:36:02;;;;;;;3.55;0.65;;;12.10;99.90;;;;;;5056253;28;20068;-28
2022/10/01 10:38:32;;;;;;;7.38;1.42;;;12.10;99.90;;;;;;5056144;28;20482;-30
2022/10/01 10:40:59;;;;;;;7.60;1.08;;;12.10;99.90;;;;;;5055461;28;20057;-30
2022/10/01 10:43:29;;;;;;;6.53;1.10;;;11.30;99.90;;;;;;5055332;28;20060;-30
2022/10/01 10:45:56;;;;;;;11.43;1.38;;;11.20;99.90;;;;;;5056291;28;20049;-32
2022/10/01 10:48:27;;;;;;;5.93;1.80;;;12.20;99.90;;;;;;5056177;28;20052;-31
2022/10/01 10:51:00;;;;;;;5.25;0.95;;;12.60;99.90;;;;;;5056026;28;20048;-31
2022/10/01 10:53:30;;;;;;;7.13;1.35;;;12.70;99.90;;;;;;5056220;28;20049;-31
2022/10/01 10:56:01;;;;;;;7.30;1.42;;;11.90;99.90;;;;;;5055877;28;20049;-32
2022/10/01 10:58:41;;;;;;;7.90;1.50;;;11.90;99.90;;;;;;5054511;28;20056;-30
2022/10/01 11:01:12;;;;;;;6.43;1.17;;;12.10;99.90;;;;;;5056189;28;20103;-31
2022/10/01 11:03:52;;;;;;;5.90;2.17;;;11.90;99.90;;;;;;5056522;28;20045;-29
2022/10/01 11:06:18;;;;;;;7.10;1.27;;;12.50;99.90;;;;;;5055924;28;20053;-30
2022/10/01 11:08:55;;;;;;;8.07;1.30;;;11.90;99.90;;;;;;5054877;28;20072;-30
2022/10/01 11:11:43;;;;;;;9.57;1.73;;;11.90;99.90;;;;;;5055819;28;20052;-31
2022/10/01 11:14:29;;;;;;;8.07;1.42;;;12.10;99.90;;;;;;5055755;28;20053;-29
2022/10/01 11:17:04;;;;;;;4.93;1.02;;;12.20;99.90;;;;;;5055605;28;20107;-31
2022/10/01 11:19:30;;;;;;;5.40;1.17;;;12.90;99.90;;;;;;5054438;28;20049;-32
2022/10/01 11:22:17;;;;;;;7.15;1.27;;;13.20;99.90;;;;;;5055422;28;20433;-32
2022/10/01 11:25:01;;;;;;;6.22;1.27;;;13.70;99.90;;;;;;5055395;28;20423;-32
2022/10/01 11:27:50;;;;;;;12.23;1.73;;;13.60;99.90;;;;;;5055444;28;20045;-33
2022/10/01 11:30:25;;;;;;;6.63;1.10;;;13.80;99.90;;;;;;5055022;28;20391;-33
2022/10/01 11:33:05;;;;;;;7.13;1.15;;;14.00;99.90;;;;;;5055362;28;20037;-34
2022/10/01 11:35:49;;;;;;;11.07;2.25;;;13.80;99.90;;;;;;5055414;28;20056;-40
2022/10/01 11:38:40;;;;;;;7.55;1.40;;;14.60;99.90;;;;;;5055302;28;20092;-38
2022/10/01 11:41:20;;;;;;;9.63;1.45;;;14.40;99.90;;;;;;5055087;28;20045;-39
2022/10/01 11:43:53;;;;;;;9.18;1.50;;;14.30;99.90;;;;;;5054525;28;20106;-38
2022/10/01 11:46:44;;;;;;;8.50;1.63;;;14.10;99.90;;;;;;5055099;28;20049;-37
2022/10/01 11:49:28;;;;;;;8.68;1.58;;;14.20;99.90;;;;;;5055322;28;20070;-40
2022/10/01 11:52:22;;;;;;;12.90;1.58;;;14.40;99.90;;;;;;5055029;28;20045;-41
2022/10/01 12:01:17;;;;;;;12.43;2.50;;;15.00;99.90;;;;;;5054854;28;20110;-42
2022/10/01 12:03:52;;;;;;;12.73;1.35;;;14.90;99.90;;;;;;5050690;28;20107;-42
2022/10/01 12:06:23;;;;;;;15.05;3.03;;;14.80;99.90;;;;;;5054043;28;20053;-42
2022/10/01 12:08:55;;;;;;;14.88;3.67;;;14.80;99.90;;;;;;5054332;28;20053;-43
2022/10/01 12:11:33;;;;;;;10.73;1.77;;;14.60;99.90;;;;;;5054790;28;20084;-43
2022/10/01 12:14:15;;;;;;;26.60;2.88;;;14.80;99.90;;;;;;5055024;28;20055;-42
2022/10/01 12:17:35;;;;;;;14.18;2.90;;;14.80;99.90;;;;;;5054904;28;20057;-43
2022/10/01 12:20:03;;;;;;;14.05;2.30;;;14.90;99.90;;;;;;5012525;28;20046;-44
2022/10/01 12:22:33;;;;;;;8.82;1.48;;;15.10;99.90;;;;;;5052331;28;20048;-43
2022/10/01 12:24:59;;;;;;;9.27;1.80;;;15.10;99.90;;;;;;5053804;28;20099;-43
2022/10/01 12:27:43;;;;;;;11.27;2.03;;;15.40;99.90;;;;;;5054011;28;20053;-43
2022/10/01 12:30:22;;;;;;;16.38;1.88;;;15.60;99.90;;;;;;5054236;28;20052;-42
2022/10/01 12:32:47;;;;;;;11.93;1.83;;;16.00;99.90;;;;;;5054906;28;20049;-43
2022/10/01 12:35:50;;;;;;;15.20;2.47;;;16.00;99.90;;;;;;5053514;28;20052;-43
2022/10/01 12:38:34;;;;;;;7.38;1.25;;;15.90;99.90;;;;;;5053250;28;20080;-43
2022/10/01 12:41:38;;;;;;;8.38;1.27;;;15.60;99.90;;;;;;5054044;28;20053;-44
2022/10/01 12:44:04;;;;;;;6.93;2.40;;;15.20;99.90;;;;;;5048104;28;20057;-43
2022/10/01 12:46:41;;;;;;;3.45;0.55;;;14.60;99.90;;;;;;5054056;28;20052;-42
2022/10/01 12:49:32;;;;;;;3.72;0.55;;;14.10;99.90;;;;;;5054592;28;20040;-44
2022/10/01 12:52:26;;;;;;;8.20;0.95;;;13.80;99.90;;;;;;5053234;28;20060;-42
2022/10/01 12:55:22;;;;;;;8.35;1.30;;;13.60;99.90;;;;;;5054491;28;20048;-42
2022/10/01 12:58:15;;;;;;;3.35;0.70;;;13.60;99.90;;;;;;5053561;28;20441;-43
2022/10/01 13:01:20;;;;;;;12.73;2.45;;;13.50;99.90;;;;;;5053208;28;20393;-42
2022/10/01 13:04:04;;;;;;;6.43;1.02;;;13.40;99.90;;;;;;4996342;28;20577;-43
2022/10/01 13:06:42;;;;;;;4.57;1.10;;;13.30;99.90;;;;;;5047990;28;20084;-43
2022/10/01 13:09:27;;;;;;;9.55;1.48;;;13.30;99.90;;;;;;5054014;28;20072;-43
2022/10/01 13:12:14;;;;;;;11.65;1.80;;;13.30;99.90;;;;;;5054260;28;20049;-42
2022/10/01 13:14:43;;;;;;;8.18;1.30;;;13.20;99.90;;;;;;5054202;28;20053;-42